createdAt,value
2023-05-01T00:02:17.550Z,1.38
2023-05-01T00:04:44.011Z,1.85
2023-05-01T00:07:10.612Z,1.00
2023-05-01T00:09:37.046Z,2.05
2023-05-01T00:12:03.921Z,2.13
2023-05-01T00:14:30.874Z,2.28
2023-05-01T00:16:57.359Z,1.65
2023-05-01T00:19:23.894Z,1.50
2023-05-01T00:21:52.389Z,2.35
2023-05-01T00:24:18.804Z,2.28
2023-05-01T00:26:45.230Z,1.42
2023-05-01T00:29:11.757Z,2.13
2023-05-01T00:31:38.260Z,2.08
2023-05-01T00:34:05.132Z,1.42
2023-05-01T00:36:32.222Z,1.60
2023-05-01T00:38:58.674Z,1.65
2023-05-01T00:41:25.371Z,1.48
2023-05-01T00:43:51.782Z,1.52
2023-05-01T00:46:19.120Z,1.75
2023-05-01T00:48:45.855Z,1.88
2023-05-01T00:51:12.931Z,2.17
2023-05-01T00:53:43.393Z,1.98
2023-05-01T00:56:11.097Z,2.47
2023-05-01T00:58:38.554Z,1.25
2023-05-01T01:01:05.356Z,2.05
2023-05-01T01:03:32.096Z,2.22
2023-05-01T01:06:08.345Z,2.53
2023-05-01T01:08:43.420Z,1.17
2023-05-01T01:11:19.791Z,1.83
2023-05-01T01:13:52.680Z,1.20
2023-05-01T01:16:27.848Z,1.40
2023-05-01T01:19:20.736Z,2.25
2023-05-01T01:21:51.928Z,1.75
2023-05-01T01:24:57.412Z,1.98
2023-05-01T01:27:48.617Z,1.83
2023-05-01T01:30:58.452Z,1.67
2023-05-01T01:33:35.372Z,1.17
2023-05-01T01:36:08.041Z,1.25
2023-05-01T01:38:42.293Z,1.70
2023-05-01T01:41:12.092Z,2.60
2023-05-01T01:43:44.682Z,1.63
2023-05-01T01:46:11.606Z,1.25
2023-05-01T01:48:43.353Z,1.00
2023-05-01T01:51:14.478Z,1.27
2023-05-01T01:53:45.722Z,1.70
2023-05-01T01:56:13.861Z,1.15
2023-05-01T01:58:41.133Z,1.63
2023-05-01T02:01:08.398Z,2.65
2023-05-01T02:03:37.162Z,2.05
2023-05-01T02:06:05.242Z,1.58
2023-05-01T02:08:32.490Z,2.05
2023-05-01T02:11:02.105Z,2.25
2023-05-01T02:13:31.261Z,2.30
2023-05-01T02:16:02.848Z,1.38
2023-05-01T02:18:31.360Z,2.28
2023-05-01T02:21:01.052Z,2.80
2023-05-01T02:23:29.215Z,2.90
2023-05-01T02:26:00.088Z,1.75
2023-05-01T02:28:28.318Z,1.60
2023-05-01T02:30:54.883Z,1.73
2023-05-01T02:33:21.421Z,1.40
2023-05-01T02:35:47.927Z,2.03
2023-05-01T02:38:17.164Z,2.10
2023-05-01T02:40:54.107Z,1.90
2023-05-01T02:43:22.722Z,1.58
2023-05-01T02:45:52.397Z,1.60
2023-05-01T02:48:23.611Z,2.33
2023-05-01T02:50:51.688Z,1.13
2023-05-01T02:53:18.792Z,1.50
2023-05-01T02:55:50.336Z,1.63
2023-05-01T02:58:20.569Z,2.55
2023-05-01T03:00:50.087Z,1.77
2023-05-01T03:03:17.911Z,1.77
2023-05-01T03:05:44.493Z,1.13
2023-05-01T03:08:11.607Z,2.20
2023-05-01T03:10:44.257Z,2.08
2023-05-01T03:13:11.633Z,2.65
2023-05-01T03:15:38.881Z,1.67
2023-05-01T03:18:05.896Z,1.88
2023-05-01T03:20:32.457Z,1.85
2023-05-01T03:22:59.353Z,2.35
2023-05-01T03:25:26.110Z,1.98
2023-05-01T03:27:54.952Z,1.75
2023-05-01T03:30:22.140Z,1.52
2023-05-01T03:32:49.286Z,3.67
2023-05-01T03:35:25.356Z,2.90
2023-05-01T03:37:51.994Z,2.08
2023-05-01T03:40:41.306Z,1.38
2023-05-01T03:43:31.388Z,1.25
2023-05-01T03:45:59.921Z,2.90
2023-05-01T03:48:26.489Z,2.17
2023-05-01T03:50:53.053Z,2.78
2023-05-01T03:53:19.800Z,2.15
2023-05-01T03:55:47.385Z,2.35
2023-05-01T03:58:13.888Z,2.03
2023-05-01T04:00:41.573Z,2.78
2023-05-01T04:03:08.080Z,1.67
2023-05-01T04:05:36.715Z,1.75
2023-05-01T04:08:04.473Z,1.13
2023-05-01T04:10:31.492Z,3.10
2023-05-01T04:13:03.305Z,1.77
2023-05-01T04:15:29.807Z,1.65
2023-05-01T04:17:56.889Z,2.15
2023-05-01T04:20:23.772Z,2.47
2023-05-01T04:22:50.227Z,1.48
2023-05-01T04:25:17.160Z,1.73
2023-05-01T04:27:45.132Z,1.65
2023-05-01T04:30:13.078Z,1.75
2023-05-01T04:32:39.578Z,3.15
2023-05-01T04:35:06.584Z,1.50
2023-05-01T04:37:32.998Z,2.05
2023-05-01T04:39:59.466Z,1.65
2023-05-01T04:42:31.808Z,2.15
2023-05-01T04:45:01.705Z,1.92
2023-05-01T04:47:28.848Z,2.58
2023-05-01T04:49:55.696Z,1.50
2023-05-01T04:52:22.742Z,1.88
2023-05-01T04:54:54.137Z,2.65
2023-05-01T04:57:23.139Z,2.05
2023-05-01T04:59:49.608Z,2.28
2023-05-01T05:02:16.354Z,2.47
2023-05-01T05:04:42.866Z,3.05
2023-05-01T05:07:09.927Z,3.47
2023-05-01T05:10:08.546Z,2.28
2023-05-01T05:12:35.601Z,2.08
2023-05-01T05:15:02.099Z,2.28
2023-05-01T05:17:29.490Z,2.33
2023-05-01T05:19:56.231Z,1.90
2023-05-01T05:22:23.684Z,2.70
2023-05-01T05:25:16.124Z,2.00
2023-05-01T05:27:42.522Z,3.83
2023-05-01T05:30:10.222Z,2.42
2023-05-01T05:32:37.656Z,3.03
2023-05-01T05:35:05.551Z,2.78
2023-05-01T05:37:32.020Z,3.03
2023-05-01T05:39:58.593Z,3.97
2023-05-01T05:42:25.263Z,3.28
2023-05-01T05:44:53.029Z,2.45
2023-05-01T05:47:19.502Z,3.08
2023-05-01T05:49:46.096Z,3.70
2023-05-01T05:52:12.531Z,2.58
2023-05-01T05:54:39.401Z,3.10
2023-05-01T05:57:06.024Z,2.40
2023-05-01T05:59:33.227Z,1.88
2023-05-01T06:01:59.685Z,1.52
2023-05-01T06:04:26.265Z,1.83
2023-05-01T06:06:53.081Z,1.98
2023-05-01T06:09:20.100Z,2.42
2023-05-01T06:11:46.542Z,2.92
2023-05-01T06:14:13.443Z,2.45
2023-05-01T06:16:40.006Z,2.00
2023-05-01T06:19:07.569Z,1.55
2023-05-01T06:21:34.148Z,1.77
2023-05-01T06:24:00.741Z,2.35
2023-05-01T06:26:41.689Z,2.60
2023-05-01T06:29:08.137Z,1.77
2023-05-01T06:31:35.356Z,3.05
2023-05-01T06:34:01.887Z,1.98
2023-05-01T06:36:41.107Z,2.03
2023-05-01T06:39:07.564Z,2.97
2023-05-01T06:41:35.980Z,1.77
2023-05-01T06:44:02.529Z,2.35
2023-05-01T06:46:29.178Z,2.28
2023-05-01T06:48:55.644Z,2.95
2023-05-01T06:51:22.132Z,1.77
2023-05-01T06:53:48.574Z,2.53
2023-05-01T06:56:14.996Z,2.17
2023-05-01T06:58:41.471Z,4.18
2023-05-01T07:01:07.980Z,3.42
2023-05-01T07:03:34.504Z,3.53
2023-05-01T07:06:01.051Z,2.65
2023-05-01T07:08:28.197Z,2.40
2023-05-01T07:10:54.891Z,2.40
2023-05-01T07:13:21.447Z,2.30
2023-05-01T07:15:49.034Z,3.38
2023-05-01T07:18:17.049Z,2.22
2023-05-01T07:20:43.565Z,2.97
2023-05-01T07:23:09.960Z,3.35
2023-05-01T07:25:41.301Z,3.30
2023-05-01T07:28:08.193Z,3.63
2023-05-01T07:30:36.183Z,2.00
2023-05-01T07:33:02.845Z,2.05
2023-05-01T07:35:29.550Z,2.88
2023-05-01T07:37:55.972Z,2.50
2023-05-01T07:40:22.470Z,2.03
2023-05-01T07:42:48.885Z,2.38
2023-05-01T07:45:15.335Z,2.80
2023-05-01T07:47:42.003Z,2.60
2023-05-01T07:50:12.930Z,2.28
2023-05-01T07:52:39.621Z,2.90
2023-05-01T07:55:07.214Z,2.17
2023-05-01T07:57:35.836Z,2.83
2023-05-01T08:00:02.339Z,2.45
2023-05-01T08:02:40.979Z,2.15
2023-05-01T08:05:08.183Z,2.45
2023-05-01T08:07:34.691Z,2.30
2023-05-01T08:10:01.400Z,3.05
2023-05-01T08:12:31.470Z,2.30
2023-05-01T08:14:57.954Z,2.08
2023-05-01T08:17:24.517Z,3.50
2023-05-01T08:19:51.127Z,2.38
2023-05-01T08:22:17.618Z,2.65
2023-05-01T08:24:44.026Z,2.05
2023-05-01T08:27:10.712Z,2.42
2023-05-01T08:29:37.211Z,2.65
2023-05-01T08:32:03.795Z,2.58
2023-05-01T08:34:30.274Z,2.47
2023-05-01T08:36:57.105Z,2.28
2023-05-01T08:39:32.530Z,2.67
2023-05-01T08:42:03.429Z,2.22
2023-05-01T08:44:30.989Z,2.92
2023-05-01T08:47:03.655Z,2.92
2023-05-01T08:49:33.315Z,2.35
2023-05-01T08:52:02.219Z,3.53
2023-05-01T08:54:31.709Z,2.63
2023-05-01T08:57:05.973Z,3.03
2023-05-01T08:59:36.885Z,2.42
2023-05-01T09:02:06.035Z,2.03
2023-05-01T09:04:35.452Z,2.40
2023-05-01T09:07:02.174Z,2.15
2023-05-01T09:09:29.798Z,4.88
2023-05-01T09:12:00.686Z,3.17
2023-05-01T09:14:28.715Z,3.28
2023-05-01T09:16:56.610Z,1.75
2023-05-01T09:19:23.278Z,4.10
2023-05-01T09:21:49.772Z,3.63
2023-05-01T09:24:16.378Z,1.85
2023-05-01T09:26:43.365Z,3.63
2023-05-01T09:29:10.248Z,2.80
2023-05-01T09:31:37.097Z,2.38
2023-05-01T09:34:05.880Z,4.45
2023-05-01T09:36:34.446Z,4.13
2023-05-01T09:39:01.904Z,2.63
2023-05-01T09:41:29.119Z,2.30
2023-05-01T09:43:57.156Z,3.63
2023-05-01T09:46:25.321Z,3.17
2023-05-01T09:48:55.525Z,2.92
2023-05-01T09:51:23.005Z,2.30
2023-05-01T09:53:50.402Z,2.72
2023-05-01T09:56:17.260Z,2.65
2023-05-01T09:58:44.181Z,3.20
2023-05-01T10:01:10.996Z,2.15
2023-05-01T10:03:37.819Z,3.05
2023-05-01T10:06:04.717Z,2.55
2023-05-01T10:08:50.917Z,3.22
2023-05-01T10:11:17.424Z,3.50
2023-05-01T10:13:43.927Z,2.45
2023-05-01T10:16:30.788Z,4.13
2023-05-01T10:18:58.225Z,2.60
2023-05-01T10:21:25.079Z,3.05
2023-05-01T10:23:52.942Z,2.97
2023-05-01T10:26:20.680Z,3.03
2023-05-01T10:28:49.018Z,1.73
2023-05-01T10:31:16.561Z,2.72
2023-05-01T10:33:44.729Z,1.83
2023-05-01T10:36:28.680Z,2.10
2023-05-01T10:38:55.171Z,3.83
2023-05-01T10:41:58.811Z,3.33
2023-05-01T10:44:27.013Z,2.55
2023-05-01T10:46:54.464Z,2.33
2023-05-01T10:49:21.540Z,3.03
2023-05-01T10:52:15.773Z,2.38
2023-05-01T10:54:42.233Z,1.33
2023-05-01T10:57:08.764Z,1.77
2023-05-01T11:00:05.095Z,2.30
2023-05-01T11:02:31.613Z,1.70
2023-05-01T11:04:58.862Z,2.30
2023-05-01T11:07:26.979Z,1.55
2023-05-01T11:09:55.893Z,2.20
2023-05-01T11:12:51.694Z,2.75
2023-05-01T11:15:28.841Z,2.35
2023-05-01T11:17:55.895Z,2.38
2023-05-01T11:20:25.239Z,2.17
2023-05-01T11:22:53.509Z,2.00
2023-05-01T11:25:21.112Z,3.00
2023-05-01T11:27:49.256Z,3.10
2023-05-01T11:30:16.217Z,2.42
2023-05-01T11:32:47.489Z,2.35
2023-05-01T11:35:22.141Z,2.50
2023-05-01T11:37:51.072Z,2.35
2023-05-01T11:40:23.096Z,1.88
2023-05-01T11:42:51.037Z,2.10
2023-05-01T11:45:19.466Z,1.92
2023-05-01T11:47:46.110Z,1.90
2023-05-01T11:50:13.281Z,1.73
2023-05-01T11:52:53.472Z,2.65
2023-05-01T11:55:20.944Z,2.20
2023-05-01T11:57:52.896Z,3.05
2023-05-01T12:00:26.928Z,4.07
2023-05-01T12:02:58.356Z,2.75
2023-05-01T12:05:26.351Z,1.83
2023-05-01T12:08:19.029Z,2.33
2023-05-01T12:10:47.214Z,2.45
2023-05-01T12:13:14.921Z,2.67
2023-05-01T12:15:51.561Z,1.70
2023-05-01T12:18:18.658Z,1.70
2023-05-01T12:20:53.173Z,2.10
2023-05-01T12:23:31.246Z,2.95
2023-05-01T12:25:57.996Z,2.22
2023-05-01T12:28:24.674Z,1.77
2023-05-01T12:30:51.209Z,2.00
2023-05-01T12:33:19.890Z,1.77
2023-05-01T12:35:48.920Z,3.22
2023-05-01T12:38:22.885Z,1.85
2023-05-01T12:40:54.718Z,1.30
2023-05-01T12:43:30.986Z,0.77
2023-05-01T12:45:57.991Z,1.60
2023-05-01T12:48:24.737Z,2.15
2023-05-01T12:50:54.670Z,2.35
2023-05-01T12:53:26.107Z,2.92
2023-05-01T12:55:55.097Z,2.25
2023-05-01T12:58:21.777Z,3.13
2023-05-01T13:00:49.259Z,3.08
2023-05-01T13:03:23.435Z,2.90
2023-05-01T13:05:52.074Z,2.38
2023-05-01T13:08:39.667Z,2.35
2023-05-01T13:11:10.247Z,2.75
2023-05-01T13:13:37.568Z,2.08
2023-05-01T13:16:10.405Z,1.83
2023-05-01T13:18:48.313Z,2.95
2023-05-01T13:21:20.564Z,1.42
2023-05-01T13:24:01.237Z,2.88
2023-05-01T13:26:31.428Z,1.92
2023-05-01T13:29:03.061Z,3.08
2023-05-01T13:31:30.161Z,2.55
2023-05-01T13:33:58.769Z,2.42
2023-05-01T13:36:28.861Z,1.90
2023-05-01T13:38:57.021Z,2.30
2023-05-01T13:41:28.241Z,2.47
2023-05-01T13:43:56.624Z,3.53
2023-05-01T13:46:24.901Z,3.55
2023-05-01T13:48:51.922Z,2.08
2023-05-01T13:51:24.045Z,3.80
2023-05-01T13:53:50.921Z,2.70
2023-05-01T13:56:17.518Z,2.63
2023-05-01T13:58:44.147Z,1.70
2023-05-01T14:01:20.520Z,2.80
2023-05-01T14:03:48.129Z,2.00
2023-05-01T14:06:20.721Z,2.22
2023-05-01T14:08:48.739Z,1.58
2023-05-01T14:11:15.349Z,2.35
2023-05-01T14:13:43.825Z,2.13
2023-05-01T14:16:17.367Z,1.88
2023-05-01T14:18:45.486Z,2.03
2023-05-01T14:21:20.891Z,2.15
2023-05-01T14:23:47.349Z,2.90
2023-05-01T14:26:20.924Z,2.83
2023-05-01T14:28:48.150Z,1.90
2023-05-01T14:31:34.992Z,1.90
2023-05-01T14:34:05.034Z,2.38
2023-05-01T14:36:32.830Z,1.63
2023-05-01T14:39:03.859Z,4.10
2023-05-01T14:41:31.451Z,2.53
2023-05-01T14:43:57.952Z,2.30
2023-05-01T14:46:31.527Z,2.38
2023-05-01T14:48:59.208Z,2.72
2023-05-01T14:51:26.109Z,2.75
2023-05-01T14:53:53.163Z,1.73
2023-05-01T14:56:19.733Z,1.35
2023-05-01T14:58:47.049Z,2.22
2023-05-01T15:01:14.209Z,1.73
2023-05-01T15:03:41.525Z,2.30
2023-05-01T15:06:08.982Z,2.58
2023-05-01T15:08:36.608Z,2.72
2023-05-01T15:11:03.068Z,1.65
2023-05-01T15:13:31.670Z,4.55
2023-05-01T15:15:58.620Z,1.55
2023-05-01T15:18:25.332Z,3.28
2023-05-01T15:20:51.850Z,2.88
2023-05-01T15:23:18.306Z,2.60
2023-05-01T15:25:44.760Z,2.20
2023-05-01T15:28:13.431Z,1.80
2023-05-01T15:30:44.251Z,2.55
2023-05-01T15:33:11.358Z,2.63
2023-05-01T15:35:37.948Z,3.15
2023-05-01T15:38:04.549Z,2.55
2023-05-01T15:40:31.947Z,2.72
2023-05-01T15:42:58.618Z,2.40
2023-05-01T15:45:25.111Z,1.92
2023-05-01T15:47:51.765Z,3.45
2023-05-01T15:50:18.317Z,2.50
2023-05-01T15:52:45.145Z,3.30
2023-05-01T15:55:12.923Z,3.17
2023-05-01T15:57:39.346Z,3.45
2023-05-01T16:00:08.695Z,3.08
2023-05-01T16:02:35.175Z,4.43
2023-05-01T16:05:01.708Z,2.70
2023-05-01T16:07:29.261Z,2.80
2023-05-01T16:09:59.243Z,4.15
2023-05-01T16:12:29.110Z,3.35
2023-05-01T16:14:56.372Z,2.90
2023-05-01T16:17:22.938Z,3.17
2023-05-01T16:19:49.679Z,3.53
2023-05-01T16:22:17.547Z,3.08
2023-05-01T16:24:44.419Z,3.50
2023-05-01T16:27:14.201Z,2.65
2023-05-01T16:29:40.879Z,2.60
2023-05-01T16:32:11.121Z,4.68
2023-05-01T16:34:39.312Z,4.22
2023-05-01T16:37:06.177Z,3.42
2023-05-01T16:39:36.958Z,3.08
2023-05-01T16:42:03.673Z,3.20
2023-05-01T16:44:30.292Z,4.15
2023-05-01T16:47:01.019Z,4.15
2023-05-01T16:49:27.962Z,4.05
2023-05-01T16:51:57.067Z,4.95
2023-05-01T16:54:35.465Z,4.75
2023-05-01T16:57:03.156Z,6.28
2023-05-01T16:59:29.997Z,4.00
2023-05-01T17:01:56.682Z,4.30
2023-05-01T17:04:23.246Z,6.10
2023-05-01T17:06:49.814Z,6.68
2023-05-01T17:09:16.318Z,6.05
2023-05-01T17:11:56.431Z,4.70
2023-05-01T17:14:23.073Z,5.40
2023-05-01T17:16:50.177Z,4.53
2023-05-01T17:19:17.077Z,5.43
2023-05-01T17:21:45.867Z,6.20
2023-05-01T17:24:13.887Z,6.05
2023-05-01T17:26:40.455Z,5.40
2023-05-01T17:29:06.940Z,7.40
2023-05-01T17:31:33.562Z,6.78
2023-05-01T17:34:00.616Z,4.57
2023-05-01T17:36:27.061Z,5.93
2023-05-01T17:38:54.549Z,6.97
2023-05-01T17:41:22.264Z,6.63
2023-05-01T17:43:48.723Z,4.80
2023-05-01T17:46:16.652Z,6.53
2023-05-01T17:48:43.229Z,8.18
2023-05-01T17:51:09.893Z,7.00
2023-05-01T17:53:37.337Z,7.13
2023-05-01T17:56:03.867Z,5.60
2023-05-01T17:58:30.358Z,6.35
2023-05-01T18:00:59.061Z,4.93
2023-05-01T18:03:25.675Z,6.22
2023-05-01T18:05:52.365Z,6.95
2023-05-01T18:08:18.776Z,6.78
2023-05-01T18:10:45.309Z,6.68
2023-05-01T18:13:12.415Z,7.78
2023-05-01T18:15:38.950Z,6.82
2023-05-01T18:18:05.639Z,5.68
2023-05-01T18:20:32.150Z,6.82
2023-05-01T18:22:58.602Z,7.15
2023-05-01T18:25:25.119Z,6.43
2023-05-01T18:27:51.631Z,9.23
2023-05-01T18:30:18.096Z,7.95
2023-05-01T18:32:48.360Z,7.18
2023-05-01T18:35:16.751Z,9.30
2023-05-01T18:37:43.928Z,8.05
2023-05-01T18:40:10.903Z,8.98
2023-05-01T18:42:37.443Z,8.05
2023-05-01T18:45:04.279Z,8.77
2023-05-01T18:47:32.422Z,8.13
2023-05-01T18:49:59.889Z,7.50
2023-05-01T18:52:27.726Z,8.98
2023-05-01T18:54:54.127Z,8.68
2023-05-01T18:57:20.662Z,8.48
2023-05-01T18:59:49.414Z,9.60
2023-05-01T19:02:16.148Z,8.13
2023-05-01T19:04:56.162Z,7.65
2023-05-01T19:07:23.629Z,8.43
2023-05-01T19:09:50.068Z,8.18
2023-05-01T19:12:16.544Z,9.30
2023-05-01T19:14:43.079Z,10.15
2023-05-01T19:17:09.858Z,11.38
2023-05-01T19:19:36.348Z,9.00
2023-05-01T19:22:02.826Z,10.25
2023-05-01T19:24:29.330Z,10.70
2023-05-01T19:26:55.784Z,9.35
2023-05-01T19:29:22.195Z,9.23
2023-05-01T19:31:48.774Z,9.82
2023-05-01T19:34:15.288Z,8.73
2023-05-01T19:36:41.686Z,9.80
2023-05-01T19:39:08.281Z,12.68
2023-05-01T19:41:34.914Z,11.50
2023-05-01T19:44:01.537Z,9.77
2023-05-01T19:46:28.109Z,10.05
2023-05-01T19:48:54.710Z,9.77
2023-05-01T19:51:21.337Z,10.23
2023-05-01T19:53:47.810Z,13.13
2023-05-01T19:56:14.409Z,11.20
2023-05-01T19:58:40.823Z,13.00
2023-05-01T20:01:09.184Z,10.63
2023-05-01T20:03:35.780Z,11.00
2023-05-01T20:06:02.256Z,11.38
2023-05-01T20:08:28.748Z,12.13
2023-05-01T20:10:56.687Z,12.45
2023-05-01T20:13:23.309Z,11.63
2023-05-01T20:15:51.059Z,13.02
2023-05-01T20:18:17.561Z,11.90
2023-05-01T20:20:44.011Z,12.80
2023-05-01T20:23:15.261Z,11.35
2023-05-01T20:25:42.465Z,10.63
2023-05-01T20:28:10.998Z,12.00
2023-05-01T20:30:43.379Z,11.27
2023-05-01T20:33:10.340Z,12.75
2023-05-01T20:35:37.134Z,12.07
2023-05-01T20:38:07.312Z,12.65
2023-05-01T20:40:33.846Z,13.05
2023-05-01T20:43:00.617Z,11.80
2023-05-01T20:45:29.113Z,12.50
2023-05-01T20:47:56.158Z,11.45
2023-05-01T20:50:22.887Z,11.68
2023-05-01T20:52:49.363Z,11.88
2023-05-01T20:55:15.809Z,12.60
2023-05-01T20:57:42.198Z,11.32
2023-05-01T21:00:09.057Z,12.63
2023-05-01T21:02:39.630Z,12.20
2023-05-01T21:05:10.321Z,9.80
2023-05-01T21:07:38.230Z,8.77
2023-05-01T21:10:10.985Z,9.70
2023-05-01T21:12:37.832Z,9.02
2023-05-01T21:15:05.551Z,10.50
2023-05-01T21:17:34.456Z,9.70
2023-05-01T21:20:01.392Z,10.75
2023-05-01T21:22:28.459Z,10.50
2023-05-01T21:24:57.056Z,9.15
2023-05-01T21:27:25.045Z,7.45
2023-05-01T21:29:57.099Z,8.48
2023-05-01T21:32:32.551Z,10.75
2023-05-01T21:35:03.573Z,9.77
2023-05-01T21:37:30.148Z,8.20
2023-05-01T21:40:01.149Z,10.00
2023-05-01T21:42:35.575Z,9.30
2023-05-01T21:45:14.173Z,8.27
2023-05-01T21:47:42.937Z,10.10
2023-05-01T21:50:14.424Z,9.20
2023-05-01T21:52:43.416Z,6.93
2023-05-01T21:55:16.051Z,6.68
2023-05-01T21:57:42.477Z,9.20
2023-05-01T22:00:09.893Z,7.35
2023-05-01T22:02:47.399Z,7.32
2023-05-01T22:05:15.488Z,5.85
2023-05-01T22:07:44.964Z,5.78
2023-05-01T22:10:13.999Z,6.88
2023-05-01T22:12:40.855Z,7.50
2023-05-01T22:15:09.313Z,6.50
2023-05-01T22:17:36.981Z,8.40
2023-05-01T22:20:05.764Z,7.43
2023-05-01T22:22:32.531Z,6.97
2023-05-01T22:24:58.993Z,6.63
2023-05-01T22:27:25.567Z,5.47
2023-05-01T22:29:51.968Z,6.15
2023-05-01T22:32:18.513Z,6.57
2023-05-01T22:34:45.066Z,5.57
2023-05-01T22:37:11.761Z,4.90
2023-05-01T22:39:38.154Z,6.95
2023-05-01T22:42:04.929Z,6.40
2023-05-01T22:44:32.168Z,4.32
2023-05-01T22:47:01.553Z,7.03
2023-05-01T22:49:28.698Z,5.25
2023-05-01T22:51:55.749Z,5.20
2023-05-01T22:54:22.278Z,7.40
2023-05-01T22:56:49.934Z,5.70
2023-05-01T22:59:16.972Z,6.05
2023-05-01T23:01:44.525Z,4.57
2023-05-01T23:04:11.817Z,4.75
2023-05-01T23:06:39.191Z,4.82
2023-05-01T23:09:06.225Z,6.10
2023-05-01T23:11:33.711Z,4.50
2023-05-01T23:14:00.878Z,4.30
2023-05-01T23:16:28.108Z,5.50
2023-05-01T23:18:55.652Z,5.90
2023-05-01T23:21:22.236Z,6.70
2023-05-01T23:23:48.928Z,4.43
2023-05-01T23:26:26.806Z,6.20
2023-05-01T23:28:53.608Z,5.88
2023-05-01T23:31:27.528Z,5.43
2023-05-01T23:33:54.933Z,5.70
2023-05-01T23:36:21.679Z,5.35
2023-05-01T23:38:48.161Z,6.68
2023-05-01T23:41:15.273Z,4.55
2023-05-01T23:43:42.420Z,6.22
2023-05-01T23:46:08.876Z,5.70
2023-05-01T23:48:36.115Z,7.43
2023-05-01T23:51:03.103Z,7.55
2023-05-01T23:53:29.989Z,6.40
2023-05-01T23:55:56.822Z,7.90
2023-05-01T23:58:23.834Z,7.00
